createdAt,value
2022-12-06T00:01:46.590Z,6.03
2022-12-06T00:04:17.493Z,6.10
2022-12-06T00:06:48.504Z,5.90
2022-12-06T00:09:29.955Z,6.58
2022-12-06T00:11:59.593Z,6.42
2022-12-06T00:14:28.552Z,6.50
2022-12-06T00:16:57.254Z,6.05
2022-12-06T00:19:28.704Z,6.65
2022-12-06T00:21:58.457Z,6.97
2022-12-06T00:24:27.508Z,6.87
2022-12-06T00:26:56.628Z,7.45
2022-12-06T00:29:25.917Z,8.50
2022-12-06T00:31:54.631Z,9.63
2022-12-06T00:34:23.646Z,9.65
2022-12-06T00:36:52.545Z,10.32
2022-12-06T00:39:22.353Z,11.35
2022-12-06T00:41:51.606Z,10.25
2022-12-06T00:44:20.916Z,9.73
2022-12-06T00:46:49.995Z,9.78
2022-12-06T00:49:19.485Z,10.48
2022-12-06T00:51:48.917Z,10.00
2022-12-06T00:54:18.076Z,9.28
2022-12-06T00:56:48.386Z,10.65
2022-12-06T00:59:17.228Z,10.18
2022-12-06T01:01:46.523Z,9.78
2022-12-06T01:04:15.552Z,9.55
2022-12-06T01:06:44.284Z,9.68
2022-12-06T01:09:13.375Z,9.25
2022-12-06T01:11:42.205Z,9.03
2022-12-06T01:14:10.890Z,8.73
2022-12-06T01:16:41.267Z,8.63
2022-12-06T01:19:11.994Z,8.50
2022-12-06T01:21:41.894Z,7.67
2022-12-06T01:24:10.439Z,8.00
2022-12-06T01:26:40.560Z,8.70
2022-12-06T01:29:10.364Z,7.87
2022-12-06T01:31:39.467Z,7.47
2022-12-06T01:34:14.593Z,7.25
2022-12-06T01:36:43.836Z,7.65
2022-12-06T01:39:12.609Z,7.53
2022-12-06T01:41:41.532Z,8.13
2022-12-06T01:44:44.598Z,7.30
2022-12-06T01:47:22.334Z,6.70
2022-12-06T01:50:10.930Z,7.72
2022-12-06T01:53:06.301Z,7.65
2022-12-06T01:55:37.362Z,7.33
2022-12-06T01:58:18.171Z,8.20
2022-12-06T02:00:47.194Z,7.35
2022-12-06T02:03:23.085Z,7.58
2022-12-06T02:05:52.658Z,8.00
2022-12-06T02:08:21.701Z,7.70
2022-12-06T02:10:51.862Z,8.60
2022-12-06T02:13:21.519Z,7.55
2022-12-06T02:16:16.963Z,7.75
2022-12-06T02:19:06.744Z,7.42
2022-12-06T02:22:09.794Z,6.67
2022-12-06T02:25:01.684Z,6.50
2022-12-06T02:27:55.424Z,8.50
2022-12-06T02:31:09.221Z,7.42
2022-12-06T02:33:52.741Z,7.42
2022-12-06T02:36:33.128Z,8.05
2022-12-06T02:39:09.629Z,7.87
2022-12-06T02:42:04.187Z,7.80
2022-12-06T02:44:44.752Z,7.28
2022-12-06T02:47:13.951Z,7.95
2022-12-06T02:49:46.471Z,8.85
2022-12-06T02:52:15.646Z,9.48
2022-12-06T02:54:45.885Z,8.35
2022-12-06T02:57:14.968Z,8.05
2022-12-06T02:59:53.876Z,8.45
2022-12-06T03:02:25.271Z,7.33
2022-12-06T03:05:10.865Z,7.95
2022-12-06T03:07:45.198Z,8.23
2022-12-06T03:10:32.235Z,7.12
2022-12-06T03:13:26.246Z,8.20
2022-12-06T03:16:11.335Z,8.00
2022-12-06T03:18:49.108Z,8.50
2022-12-06T03:21:39.730Z,8.95
2022-12-06T03:24:11.638Z,8.10
2022-12-06T03:26:40.260Z,7.67
2022-12-06T03:29:09.559Z,8.60
2022-12-06T03:31:39.669Z,7.62
2022-12-06T03:34:24.036Z,7.40
2022-12-06T03:36:53.199Z,7.08
2022-12-06T03:39:33.364Z,5.97
2022-12-06T03:42:03.010Z,6.97
2022-12-06T03:44:33.932Z,5.12
2022-12-06T03:47:17.193Z,5.55
2022-12-06T03:49:49.326Z,5.92
2022-12-06T03:52:18.938Z,5.78
2022-12-06T03:54:48.135Z,6.22
2022-12-06T03:57:17.031Z,6.70
2022-12-06T03:59:46.822Z,6.12
2022-12-06T04:02:15.936Z,5.20
2022-12-06T04:04:44.748Z,4.80
2022-12-06T04:07:15.469Z,4.85
2022-12-06T04:09:54.974Z,5.05
2022-12-06T04:12:43.154Z,6.00
2022-12-06T04:15:12.182Z,7.00
2022-12-06T04:18:00.901Z,7.20
2022-12-06T04:20:32.874Z,6.80
2022-12-06T04:23:04.880Z,6.20
2022-12-06T04:25:35.716Z,6.78
2022-12-06T04:28:24.016Z,6.50
2022-12-06T04:31:11.367Z,6.12
2022-12-06T04:33:59.279Z,4.92
2022-12-06T04:36:46.685Z,5.40
2022-12-06T04:39:20.536Z,5.15
2022-12-06T04:42:05.652Z,5.30
2022-12-06T04:47:02.723Z,4.90
2022-12-06T04:49:32.758Z,4.30
2022-12-06T04:52:04.273Z,4.58
2022-12-06T04:54:34.301Z,5.30
2022-12-06T04:57:03.206Z,4.75
2022-12-06T04:59:33.853Z,4.78
2022-12-06T05:02:02.810Z,4.22
2022-12-06T05:04:33.400Z,5.20
2022-12-06T05:07:02.586Z,5.05
2022-12-06T05:09:32.330Z,5.42
2022-12-06T05:12:02.957Z,5.28
2022-12-06T05:14:32.669Z,5.78
2022-12-06T05:17:02.926Z,5.83
2022-12-06T05:19:32.847Z,5.60
2022-12-06T05:22:03.976Z,5.40
2022-12-06T05:24:34.916Z,5.80
2022-12-06T05:27:05.554Z,5.62
2022-12-06T05:29:36.470Z,5.62
2022-12-06T05:32:06.358Z,6.17
2022-12-06T05:34:36.236Z,6.30
2022-12-06T05:37:06.416Z,5.78
2022-12-06T05:39:35.756Z,5.85
2022-12-06T05:42:06.186Z,7.35
2022-12-06T05:44:35.532Z,6.37
2022-12-06T05:47:05.208Z,6.00
2022-12-06T05:49:35.372Z,6.30
2022-12-06T05:52:05.690Z,5.80
2022-12-06T05:54:36.720Z,4.67
2022-12-06T05:57:07.131Z,4.90
2022-12-06T05:59:39.205Z,4.62
2022-12-06T06:02:13.731Z,6.85
2022-12-06T06:04:43.680Z,5.87
2022-12-06T06:07:13.305Z,5.78
2022-12-06T06:09:42.882Z,6.22
2022-12-06T06:12:13.021Z,7.00
2022-12-06T06:14:42.345Z,6.87
2022-12-06T06:17:12.140Z,6.90
2022-12-06T06:19:42.218Z,6.28
2022-12-06T06:22:11.606Z,6.15
2022-12-06T06:24:41.830Z,7.35
2022-12-06T06:27:11.597Z,8.40
2022-12-06T06:29:45.342Z,5.80
2022-12-06T06:32:13.430Z,6.57
2022-12-06T06:34:46.957Z,6.75
2022-12-06T06:37:16.098Z,6.45
2022-12-06T06:39:52.212Z,6.45
2022-12-06T06:42:21.614Z,6.53
2022-12-06T06:44:54.319Z,6.75
2022-12-06T06:47:23.770Z,5.97
2022-12-06T06:49:53.076Z,6.85
2022-12-06T06:52:23.014Z,7.15
2022-12-06T06:54:53.576Z,7.03
2022-12-06T06:57:22.966Z,6.10
2022-12-06T06:59:52.639Z,6.75
2022-12-06T07:02:22.061Z,6.03
2022-12-06T07:04:51.998Z,6.22
2022-12-06T07:07:23.076Z,6.03
2022-12-06T07:09:52.602Z,6.33
2022-12-06T07:12:22.047Z,7.78
2022-12-06T07:14:51.704Z,8.80
2022-12-06T07:17:21.790Z,9.25
2022-12-06T07:19:52.164Z,8.10
2022-12-06T07:22:23.404Z,7.17
2022-12-06T07:24:53.588Z,11.57
2022-12-06T07:27:24.786Z,10.23
2022-12-06T07:29:54.885Z,9.70
2022-12-06T07:32:25.302Z,8.23
2022-12-06T07:34:55.978Z,6.42
2022-12-06T07:37:26.447Z,5.95
2022-12-06T07:39:57.742Z,5.67
2022-12-06T07:42:47.379Z,5.83
2022-12-06T07:45:19.433Z,5.20
2022-12-06T07:47:50.053Z,5.40
2022-12-06T07:50:23.475Z,6.15
2022-12-06T07:52:53.375Z,5.85
2022-12-06T07:55:24.783Z,5.70
2022-12-06T07:57:56.449Z,6.05
2022-12-06T08:00:27.840Z,5.50
2022-12-06T08:02:57.471Z,6.35
2022-12-06T08:05:27.883Z,6.35
2022-12-06T08:07:59.233Z,6.12
2022-12-06T08:10:30.206Z,6.50
2022-12-06T08:13:04.537Z,6.65
2022-12-06T08:15:34.470Z,6.45
2022-12-06T08:18:05.496Z,5.25
2022-12-06T08:20:35.254Z,5.92
2022-12-06T08:23:05.555Z,6.08
2022-12-06T08:25:35.562Z,6.12
2022-12-06T08:28:05.806Z,5.20
2022-12-06T08:30:35.901Z,5.53
2022-12-06T08:33:05.718Z,4.85
2022-12-06T08:35:38.125Z,5.33
2022-12-06T08:38:07.289Z,4.87
2022-12-06T08:40:37.882Z,5.35
2022-12-06T08:43:10.881Z,4.00
2022-12-06T08:45:40.122Z,3.10
2022-12-06T08:48:09.254Z,3.05
2022-12-06T08:50:40.208Z,2.90
2022-12-06T08:53:09.146Z,3.50
2022-12-06T08:55:38.980Z,3.10
2022-12-06T08:58:08.489Z,3.33
2022-12-06T09:00:38.217Z,3.45
2022-12-06T09:03:07.519Z,2.98
2022-12-06T09:05:37.985Z,3.58
2022-12-06T09:08:09.965Z,3.08
2022-12-06T09:10:40.331Z,2.95
2022-12-06T09:13:09.988Z,3.20
2022-12-06T09:15:40.151Z,4.08
2022-12-06T09:18:09.474Z,3.42
2022-12-06T09:20:42.747Z,3.55
2022-12-06T09:23:11.843Z,3.58
2022-12-06T09:25:44.248Z,3.30
2022-12-06T09:28:13.550Z,3.55
2022-12-06T09:30:43.773Z,3.65
2022-12-06T09:33:14.534Z,4.10
2022-12-06T09:35:43.741Z,4.67
2022-12-06T09:38:13.705Z,5.60
2022-12-06T09:40:57.191Z,5.28
2022-12-06T09:43:35.110Z,4.80
2022-12-06T09:46:34.657Z,3.40
2022-12-06T09:49:27.614Z,4.22
2022-12-06T09:52:35.964Z,3.90
2022-12-06T09:55:33.503Z,4.67
2022-12-06T09:58:29.841Z,3.92
2022-12-06T10:01:24.222Z,4.00
2022-12-06T10:04:17.335Z,3.92
2022-12-06T10:18:46.105Z,3.77
2022-12-06T10:21:51.174Z,4.17
2022-12-06T10:24:56.080Z,3.90
2022-12-06T10:27:50.115Z,3.17
2022-12-06T10:30:20.730Z,3.47
2022-12-06T10:33:06.543Z,3.67
2022-12-06T10:35:43.486Z,5.08
2022-12-06T10:38:25.151Z,4.55
2022-12-06T10:41:27.035Z,4.33
2022-12-06T10:44:26.940Z,3.85
2022-12-06T10:47:34.124Z,3.62
2022-12-06T10:50:10.744Z,2.83
2022-12-06T10:55:28.008Z,3.25
2022-12-06T10:58:17.549Z,3.42
2022-12-06T11:01:18.650Z,8.30
2022-12-06T11:04:18.817Z,3.12
2022-12-06T11:06:54.922Z,4.28
2022-12-06T11:09:48.289Z,3.50
2022-12-06T11:12:31.455Z,3.67
2022-12-06T11:15:26.023Z,3.15
2022-12-06T11:18:15.532Z,4.45
2022-12-06T11:21:15.147Z,3.75
2022-12-06T11:23:55.303Z,4.00
2022-12-06T11:26:38.742Z,3.80
2022-12-06T11:29:12.124Z,4.33
2022-12-06T11:31:57.079Z,3.85
2022-12-06T11:34:53.740Z,3.62
2022-12-06T11:37:26.911Z,2.92
2022-12-06T11:40:11.149Z,3.92
2022-12-06T11:42:41.136Z,3.30
2022-12-06T11:45:28.137Z,3.72
2022-12-06T11:47:59.300Z,2.70
2022-12-06T11:50:32.689Z,3.70
2022-12-06T11:53:06.502Z,3.60
2022-12-06T11:55:39.979Z,3.15
2022-12-06T11:58:17.877Z,3.30
2022-12-06T12:01:12.334Z,3.22
2022-12-06T12:03:44.193Z,4.55
2022-12-06T12:06:27.333Z,5.03
2022-12-06T12:09:06.293Z,4.15
2022-12-06T12:11:39.390Z,5.53
2022-12-06T12:14:20.814Z,4.75
2022-12-06T12:16:50.459Z,4.25
2022-12-06T12:19:38.533Z,4.37
2022-12-06T12:22:38.491Z,4.00
2022-12-06T12:25:31.683Z,3.90
2022-12-06T12:28:02.063Z,3.98
2022-12-06T12:30:36.851Z,4.17
2022-12-06T12:33:14.590Z,3.33
2022-12-06T12:38:38.749Z,4.67
2022-12-06T12:41:40.960Z,4.70
2022-12-06T12:44:39.347Z,4.20
2022-12-06T12:47:04.672Z,4.03
2022-12-06T12:49:36.089Z,3.95
2022-12-06T12:52:29.856Z,4.35
2022-12-06T12:55:21.309Z,5.08
2022-12-06T12:57:53.864Z,5.53
2022-12-06T13:00:32.976Z,5.08
2022-12-06T13:03:49.103Z,4.30
2022-12-06T13:05:49.651Z,4.33
2022-12-06T13:08:40.068Z,4.60
2022-12-06T13:11:28.954Z,5.72
2022-12-06T13:14:03.248Z,7.60
